ENVA/TRD METAR and TAF weather

Enter ICAO airport designator
Station Type Date Time Source
ENVA METAR 2018/12/10 17:20 UTC NOAA

ENVA 101720Z 30008KT 9999 -DZ SCT020 BKN028 03/01 Q1011 RMK WIND 670FT 32015KT


Station Type Date Time Source
ENVA Decoded METAR 2018/12/10 17:20 UTC NOAA

Trondheim / Vaernes, Norway (ENVA) 63-28N 010-56E 17M
Dec 10, 2018 - 12:20 PM EST / 2018.12.10 1720 UTC
Wind: from the WNW (300 degrees) at 9 MPH (8 KT):0
Visibility: greater than 7 mile(s):0
Sky conditions: mostly cloudy
Weather: light drizzle
Temperature: 37 F (3 C)
Dew Point: 33 F (1 C)
Relative Humidity: 86%
Pressure (altimeter): 29.85 in. Hg (1011 hPa)
ob: ENVA 101720Z 30008KT 9999 -DZ SCT020 BKN028 03/01 Q1011 RMK WIND 670FT 32015KT
cycle: 17

Station Type Date Time Source
ENVA TAF 2018/12/10 12:57 UTC NOAA

TAF ENVA 101100Z 1012/1112 29012KT 9999 -RA SCT015 BKN030 PROB30
TEMPO 1012/1106 3000 -SHRASN VV008
BECMG 1019/1021 VRB07KT


Example: see airport list